createdAt,value
2022-09-20T00:01:33.237Z,97.40
2022-09-20T00:04:06.741Z,97.40
2022-09-20T00:06:35.802Z,97.40
2022-09-20T00:09:05.548Z,97.40
2022-09-20T00:11:36.291Z,97.40
2022-09-20T00:14:08.393Z,97.40
2022-09-20T00:16:40.061Z,97.40
2022-09-20T00:19:10.421Z,97.40
2022-09-20T00:21:38.724Z,97.40
2022-09-20T00:24:07.258Z,97.40
2022-09-20T00:26:36.066Z,97.40
2022-09-20T00:29:05.516Z,97.40
2022-09-20T00:31:33.670Z,97.40
2022-09-20T00:34:19.586Z,97.40
2022-09-20T00:36:49.037Z,97.40
2022-09-20T00:39:17.787Z,97.40
2022-09-20T00:41:47.075Z,97.40
2022-09-20T00:44:46.180Z,97.40
2022-09-20T00:47:22.550Z,97.40
2022-09-20T00:49:53.239Z,97.40
2022-09-20T00:52:23.322Z,97.40
2022-09-20T00:54:51.763Z,97.40
2022-09-20T00:57:20.215Z,97.40
2022-09-20T00:59:50.613Z,97.40
2022-09-20T01:02:24.378Z,97.40
2022-09-20T01:04:52.891Z,97.40
2022-09-20T01:07:24.017Z,97.40
2022-09-20T01:09:52.851Z,97.40
2022-09-20T01:12:24.154Z,97.40
2022-09-20T01:14:53.689Z,97.40
2022-09-20T01:17:25.310Z,97.40
2022-09-20T01:20:17.043Z,97.40
2022-09-20T01:23:32.714Z,97.40
2022-09-20T01:26:29.065Z,97.40
2022-09-20T01:29:10.359Z,97.40
2022-09-20T01:31:45.936Z,97.40
2022-09-20T01:34:19.174Z,97.40
2022-09-20T01:36:54.757Z,97.40
2022-09-20T01:39:35.313Z,97.40
2022-09-20T01:42:09.469Z,97.40
2022-09-20T01:44:49.072Z,97.40
2022-09-20T01:47:31.848Z,97.40
2022-09-20T01:50:12.362Z,97.40
2022-09-20T01:53:32.517Z,97.40
2022-09-20T01:56:39.653Z,97.40
2022-09-20T01:59:50.525Z,97.40
2022-09-20T02:03:12.375Z,97.40
2022-09-20T02:06:35.282Z,97.40
2022-09-20T02:09:30.378Z,97.40
2022-09-20T02:12:28.518Z,97.40
2022-09-20T02:15:10.006Z,97.40
2022-09-20T02:17:56.326Z,97.40
2022-09-20T02:20:40.398Z,97.40
2022-09-20T02:23:23.393Z,97.40
2022-09-20T02:26:06.620Z,97.40
2022-09-20T02:29:03.594Z,97.40
2022-09-20T02:31:54.012Z,97.40
2022-09-20T02:34:51.648Z,97.40
2022-09-20T02:37:50.691Z,97.40
2022-09-20T02:40:31.420Z,97.40
2022-09-20T02:43:07.936Z,97.40
2022-09-20T02:45:43.093Z,97.40
2022-09-20T02:48:16.272Z,97.40
2022-09-20T02:50:53.923Z,97.40
2022-09-20T02:53:38.052Z,97.40
2022-09-20T02:56:18.726Z,97.40
2022-09-20T02:58:56.400Z,97.40
2022-09-20T03:01:40.818Z,97.40
2022-09-20T03:04:34.685Z,97.40
2022-09-20T03:07:09.790Z,97.40
2022-09-20T03:09:48.124Z,97.40
2022-09-20T03:12:27.537Z,97.40
2022-09-20T03:15:11.464Z,97.40
2022-09-20T03:17:49.884Z,97.40
2022-09-20T03:20:32.606Z,97.40
2022-09-20T03:23:15.953Z,97.40
2022-09-20T03:25:56.684Z,97.40
2022-09-20T03:28:47.994Z,97.40
2022-09-20T03:31:28.600Z,97.40
2022-09-20T03:34:07.422Z,97.40
2022-09-20T03:37:07.442Z,97.40
2022-09-20T03:40:34.776Z,97.40
2022-09-20T03:43:13.449Z,97.40
2022-09-20T03:45:56.234Z,97.40
2022-09-20T03:48:54.263Z,97.40
2022-09-20T03:51:33.774Z,97.40
2022-09-20T03:54:55.633Z,97.40
2022-09-20T03:58:10.448Z,97.40
2022-09-20T04:00:57.614Z,97.40
2022-09-20T04:03:36.536Z,97.40
2022-09-20T04:06:49.654Z,97.40
2022-09-20T04:09:58.122Z,97.40
2022-09-20T04:12:34.620Z,97.40
2022-09-20T04:15:21.860Z,97.40
2022-09-20T04:17:59.877Z,97.40
2022-09-20T04:20:41.217Z,97.40
2022-09-20T04:23:25.670Z,97.40
2022-09-20T04:25:55.552Z,97.40
2022-09-20T04:28:31.944Z,97.40
2022-09-20T04:31:09.178Z,97.40
2022-09-20T04:33:44.159Z,97.40
2022-09-20T04:36:31.020Z,97.40
2022-09-20T04:39:15.606Z,97.40
2022-09-20T04:42:28.662Z,97.40
2022-09-20T04:45:18.776Z,97.40
2022-09-20T04:49:01.278Z,97.40
2022-09-20T04:52:14.803Z,97.40
2022-09-20T04:55:18.714Z,97.40
2022-09-20T04:58:51.810Z,97.40
2022-09-20T05:02:33.962Z,97.40
2022-09-20T05:05:55.863Z,97.40
2022-09-20T05:08:59.070Z,97.40
2022-09-20T05:12:02.901Z,97.40
2022-09-20T05:15:09.081Z,97.40
2022-09-20T05:18:01.083Z,97.40
2022-09-20T05:20:48.646Z,97.40
2022-09-20T05:24:00.994Z,97.40
2022-09-20T05:26:45.406Z,97.40
2022-09-20T05:29:21.083Z,97.40
2022-09-20T05:32:00.390Z,97.40
2022-09-20T05:34:42.457Z,97.40
2022-09-20T05:37:28.126Z,97.40
2022-09-20T05:40:05.494Z,97.40
2022-09-20T05:42:42.833Z,97.40
2022-09-20T05:45:35.016Z,97.40
2022-09-20T05:48:15.544Z,97.40
2022-09-20T05:50:55.755Z,97.40
2022-09-20T05:53:57.226Z,97.40
2022-09-20T05:56:39.299Z,97.40
2022-09-20T05:59:24.101Z,97.40
2022-09-20T06:02:11.428Z,97.40
2022-09-20T06:04:53.279Z,97.40
2022-09-20T06:07:33.465Z,97.40
2022-09-20T06:10:32.551Z,97.40
2022-09-20T06:13:16.096Z,97.40
2022-09-20T06:15:51.953Z,97.40
2022-09-20T06:18:28.477Z,97.40
2022-09-20T06:21:10.246Z,97.40
2022-09-20T06:23:38.475Z,97.40
2022-09-20T06:26:14.694Z,97.40
2022-09-20T06:28:48.156Z,97.40
2022-09-20T06:31:17.298Z,97.40
2022-09-20T06:33:52.132Z,97.40
2022-09-20T06:36:46.776Z,97.40
2022-09-20T06:39:44.840Z,97.40
2022-09-20T06:42:12.999Z,97.40
2022-09-20T06:44:43.259Z,97.40
2022-09-20T06:47:12.541Z,97.40
2022-09-20T06:49:42.271Z,97.40
2022-09-20T06:52:15.591Z,97.40
2022-09-20T06:54:45.735Z,97.40
2022-09-20T06:57:17.420Z,97.40
2022-09-20T06:59:45.643Z,97.40
2022-09-20T07:02:13.781Z,97.40
2022-09-20T07:04:42.237Z,97.40
2022-09-20T07:07:19.277Z,97.40
2022-09-20T07:09:47.492Z,97.40
2022-09-20T07:12:15.608Z,97.40
2022-09-20T07:14:44.318Z,97.40
2022-09-20T07:17:13.189Z,97.40
2022-09-20T07:19:41.402Z,97.40
2022-09-20T07:22:09.522Z,97.40
2022-09-20T07:24:40.468Z,97.40
2022-09-20T07:27:09.011Z,97.40
2022-09-20T07:29:37.105Z,97.40
2022-09-20T07:32:05.793Z,97.40
2022-09-20T07:34:33.997Z,97.40
2022-09-20T07:37:02.369Z,97.40
2022-09-20T07:39:30.544Z,97.40
2022-09-20T07:42:01.123Z,97.40
2022-09-20T07:44:29.245Z,97.40
2022-09-20T07:47:00.438Z,97.40
2022-09-20T07:49:30.616Z,97.40
2022-09-20T07:51:59.672Z,97.40
2022-09-20T07:54:28.197Z,97.40
2022-09-20T07:56:56.410Z,97.40
2022-09-20T07:59:25.930Z,97.40
2022-09-20T08:01:54.290Z,97.40
2022-09-20T08:04:22.396Z,97.40
2022-09-20T08:06:50.521Z,96.60
2022-09-20T08:09:19.170Z,95.10
2022-09-20T08:11:47.438Z,90.40
2022-09-20T08:14:18.179Z,94.20
2022-09-20T08:16:50.555Z,91.60
2022-09-20T08:19:21.595Z,91.40
2022-09-20T08:21:50.952Z,91.60
2022-09-20T08:24:19.179Z,90.60
2022-09-20T08:26:48.254Z,87.50
2022-09-20T08:29:16.527Z,88.80
2022-09-20T08:31:44.872Z,89.00
2022-09-20T08:34:15.999Z,91.30
2022-09-20T08:36:47.315Z,89.00
2022-09-20T08:42:15.565Z,90.40
2022-09-20T08:44:59.994Z,90.10
2022-09-20T08:47:31.089Z,91.40
2022-09-20T08:50:09.027Z,93.20
2022-09-20T08:52:41.320Z,93.20
2022-09-20T08:55:18.448Z,90.90
2022-09-20T08:57:50.861Z,83.20
2022-09-20T09:00:22.050Z,76.30
2022-09-20T09:02:53.954Z,77.80
2022-09-20T09:05:36.367Z,74.60
2022-09-20T09:08:15.968Z,71.70
2022-09-20T09:10:46.623Z,63.70
2022-09-20T09:13:27.051Z,64.20
2022-09-20T09:16:00.535Z,64.60
2022-09-20T09:18:37.431Z,65.90
2022-09-20T09:21:10.353Z,68.50
2022-09-20T09:23:43.338Z,72.20
2022-09-20T09:26:21.401Z,75.60
2022-09-20T09:29:17.038Z,76.50
2022-09-20T09:31:46.368Z,74.60
2022-09-20T09:34:29.391Z,70.70
2022-09-20T09:36:59.550Z,70.40
2022-09-20T09:39:30.403Z,69.20
2022-09-20T09:42:00.988Z,75.00
2022-09-20T09:44:32.712Z,76.70
2022-09-20T09:47:01.971Z,74.60
2022-09-20T09:49:35.962Z,69.10
2022-09-20T09:52:14.412Z,69.60
2022-09-20T09:54:48.773Z,69.20
2022-09-20T09:57:40.952Z,68.10
2022-09-20T10:00:20.380Z,67.70
2022-09-20T10:03:22.794Z,66.60
2022-09-20T10:06:09.651Z,68.10
2022-09-20T10:08:54.836Z,68.70
2022-09-20T10:11:34.208Z,65.70
2022-09-20T10:14:18.407Z,68.50
2022-09-20T10:17:13.282Z,73.00
2022-09-20T10:19:58.680Z,73.30
2022-09-20T10:22:36.633Z,74.50
2022-09-20T10:25:23.994Z,72.00
2022-09-20T10:28:10.971Z,64.40
2022-09-20T10:30:55.114Z,59.60
2022-09-20T10:33:35.107Z,56.90
2022-09-20T10:36:16.728Z,53.70
2022-09-20T10:38:53.240Z,53.90
2022-09-20T10:42:09.029Z,55.70
2022-09-20T10:44:58.030Z,58.40
2022-09-20T10:47:34.091Z,58.70
2022-09-20T10:50:11.816Z,63.30
2022-09-20T10:53:04.537Z,65.90
2022-09-20T10:55:45.342Z,65.90
2022-09-20T10:58:51.885Z,67.40
2022-09-20T11:01:31.604Z,71.70
2022-09-20T11:04:33.285Z,72.60
2022-09-20T11:07:12.523Z,68.10
2022-09-20T11:09:45.679Z,66.80
2022-09-20T11:12:18.750Z,59.80
2022-09-20T11:14:56.572Z,57.80
2022-09-20T11:17:27.975Z,58.40
2022-09-20T11:20:06.893Z,57.80
2022-09-20T11:22:43.646Z,55.40
2022-09-20T11:25:21.055Z,55.40
2022-09-20T11:27:56.615Z,45.50
2022-09-20T11:30:26.439Z,45.60
2022-09-20T11:33:04.282Z,44.70
2022-09-20T11:35:37.712Z,48.20
2022-09-20T11:38:14.119Z,51.90
2022-09-20T11:40:49.304Z,51.00
2022-09-20T11:43:19.278Z,47.20
2022-09-20T11:45:55.118Z,46.80
2022-09-20T11:48:28.461Z,51.70
2022-09-20T11:51:53.072Z,51.90
2022-09-20T11:54:59.292Z,54.80
2022-09-20T11:57:28.250Z,59.80
2022-09-20T11:59:59.014Z,61.20
2022-09-20T12:02:35.477Z,64.60
2022-09-20T12:05:06.610Z,66.80
2022-09-20T12:07:39.631Z,68.30
2022-09-20T12:10:22.438Z,70.00
2022-09-20T12:12:56.745Z,72.00
2022-09-20T12:15:28.508Z,70.90
2022-09-20T12:18:37.348Z,73.00
2022-09-20T12:21:15.625Z,71.10
2022-09-20T12:24:22.515Z,74.30
2022-09-20T12:26:59.498Z,69.10
2022-09-20T12:30:07.970Z,66.40
2022-09-20T12:32:56.347Z,58.40
2022-09-20T12:36:15.802Z,56.10
2022-09-20T12:39:01.958Z,51.90
2022-09-20T12:41:46.446Z,50.50
2022-09-20T12:44:39.603Z,51.60
2022-09-20T12:47:18.917Z,53.90
2022-09-20T12:50:11.947Z,58.70
2022-09-20T12:52:58.111Z,62.30
2022-09-20T12:55:40.123Z,64.60
2022-09-20T12:58:24.634Z,68.70
2022-09-20T13:01:34.095Z,70.20
2022-09-20T13:04:55.666Z,70.00
2022-09-20T13:07:53.560Z,73.30
2022-09-20T13:10:37.459Z,74.30
2022-09-20T13:13:27.550Z,73.90
2022-09-20T13:15:56.632Z,73.20
2022-09-20T13:18:27.702Z,73.00
2022-09-20T13:21:02.584Z,73.30
2022-09-20T13:23:34.128Z,75.80
2022-09-20T13:26:04.348Z,74.50
2022-09-20T13:28:44.154Z,73.50
2022-09-20T13:31:35.631Z,71.30
2022-09-20T13:34:23.805Z,68.30
2022-09-20T13:36:56.496Z,64.60
2022-09-20T13:39:35.004Z,62.30
2022-09-20T13:42:11.584Z,58.90
2022-09-20T13:44:40.642Z,57.70
2022-09-20T13:47:24.954Z,53.90
2022-09-20T13:49:53.201Z,51.00
2022-09-20T13:52:27.841Z,49.70
2022-09-20T13:54:57.760Z,49.40
2022-09-20T13:57:30.495Z,50.00
2022-09-20T13:59:59.812Z,48.80
2022-09-20T14:02:31.739Z,49.40
2022-09-20T14:05:02.738Z,51.70
2022-09-20T14:07:31.757Z,51.00
2022-09-20T14:10:01.607Z,52.80
2022-09-20T14:12:30.118Z,53.90
2022-09-20T14:14:59.523Z,56.40
2022-09-20T14:17:36.609Z,58.70
2022-09-20T14:20:05.737Z,61.80
2022-09-20T14:22:34.015Z,62.00
2022-09-20T14:25:20.633Z,62.50
2022-09-20T14:27:48.784Z,63.80
2022-09-20T14:30:32.962Z,62.50
2022-09-20T14:33:01.295Z,64.20
2022-09-20T14:35:29.545Z,65.00
2022-09-20T14:38:01.296Z,66.40
2022-09-20T14:40:33.261Z,65.30
2022-09-20T14:43:04.861Z,66.30
2022-09-20T14:45:36.397Z,65.10
2022-09-20T14:48:11.138Z,63.10
2022-09-20T14:50:43.120Z,63.50
2022-09-20T14:53:27.087Z,63.10
2022-09-20T14:56:09.597Z,63.80
2022-09-20T14:59:06.745Z,62.70
2022-09-20T15:01:36.029Z,63.30
2022-09-20T15:04:10.702Z,66.30
2022-09-20T15:06:39.904Z,67.20
2022-09-20T15:09:08.078Z,68.10
2022-09-20T15:11:37.526Z,68.10
2022-09-20T15:14:05.675Z,64.20
2022-09-20T15:16:34.334Z,63.70
2022-09-20T15:19:02.681Z,63.80
2022-09-20T15:21:30.958Z,63.30
2022-09-20T15:23:59.182Z,62.00
2022-09-20T15:26:27.533Z,60.10
2022-09-20T15:28:57.012Z,59.20
2022-09-20T15:31:25.134Z,58.30
2022-09-20T15:33:53.279Z,59.20
2022-09-20T15:36:21.474Z,55.10
2022-09-20T15:38:49.564Z,56.70
2022-09-20T15:41:17.700Z,57.50
2022-09-20T15:43:45.773Z,56.70
2022-09-20T15:46:23.031Z,56.70
2022-09-20T15:48:51.259Z,58.40
2022-09-20T15:51:19.338Z,57.50
2022-09-20T15:53:55.321Z,58.30
2022-09-20T15:56:25.454Z,59.30
2022-09-20T15:58:58.922Z,59.20
2022-09-20T16:01:30.078Z,61.00
2022-09-20T16:03:58.156Z,64.20
2022-09-20T16:06:26.888Z,64.40
2022-09-20T16:08:56.538Z,64.00
2022-09-20T16:11:24.856Z,60.50
2022-09-20T16:13:57.512Z,60.70
2022-09-20T16:16:28.355Z,61.40
2022-09-20T16:19:14.752Z,61.40
2022-09-20T16:21:46.901Z,64.20
2022-09-20T16:24:15.379Z,63.70
2022-09-20T16:26:44.244Z,68.90
2022-09-20T16:29:12.543Z,69.80
2022-09-20T16:31:44.898Z,72.20
2022-09-20T16:34:16.924Z,74.50
2022-09-20T16:36:45.399Z,76.10
2022-09-20T16:39:15.018Z,79.30
2022-09-20T16:41:44.495Z,81.50
2022-09-20T16:44:13.065Z,81.20
2022-09-20T16:46:44.456Z,84.70
2022-09-20T16:49:14.211Z,86.00
2022-09-20T16:51:44.004Z,86.20
2022-09-20T16:54:14.861Z,87.70
2022-09-20T16:56:45.997Z,88.60
2022-09-20T16:59:16.490Z,89.00
2022-09-20T17:01:46.757Z,91.20
2022-09-20T17:04:17.568Z,91.00
2022-09-20T17:06:46.645Z,91.70
2022-09-20T17:09:16.586Z,92.10
2022-09-20T17:11:47.848Z,91.50
2022-09-20T17:14:18.499Z,93.40
2022-09-20T17:16:49.048Z,94.50
2022-09-20T17:19:19.510Z,93.40
2022-09-20T17:21:50.628Z,93.30
2022-09-20T17:24:20.017Z,93.50
2022-09-20T17:26:50.152Z,94.00
2022-09-20T17:29:19.905Z,95.30
2022-09-20T17:31:55.034Z,96.10
2022-09-20T17:34:24.526Z,95.60
2022-09-20T17:36:54.136Z,96.80
2022-09-20T17:39:22.328Z,96.40
2022-09-20T17:41:51.583Z,97.40
2022-09-20T17:44:20.153Z,97.00
2022-09-20T17:46:52.057Z,97.40
2022-09-20T17:49:22.019Z,97.40
2022-09-20T17:51:52.596Z,97.40
2022-09-20T17:54:21.891Z,97.40
2022-09-20T17:56:53.512Z,97.40
2022-09-20T17:59:21.904Z,97.40
2022-09-20T18:01:54.193Z,97.40
2022-09-20T18:04:24.339Z,97.40
2022-09-20T18:06:54.944Z,97.40
2022-09-20T18:09:25.243Z,97.40
2022-09-20T18:11:56.205Z,97.40
2022-09-20T18:14:27.248Z,97.40
2022-09-20T18:17:00.750Z,97.40
2022-09-20T18:19:32.830Z,97.40
2022-09-20T18:22:02.219Z,97.40
2022-09-20T18:24:31.809Z,97.40
2022-09-20T18:27:00.712Z,97.40
2022-09-20T18:29:29.244Z,97.40
2022-09-20T18:31:59.821Z,97.40
2022-09-20T18:34:31.118Z,97.40
2022-09-20T18:37:01.179Z,97.40
2022-09-20T18:39:31.034Z,97.40
2022-09-20T18:41:59.890Z,97.40
2022-09-20T18:44:33.522Z,97.40
2022-09-20T18:47:03.730Z,97.40
2022-09-20T18:49:32.445Z,97.40
2022-09-20T18:52:00.554Z,97.40
2022-09-20T18:54:30.431Z,97.40
2022-09-20T18:56:59.387Z,97.40
2022-09-20T18:59:28.778Z,97.40
2022-09-20T19:02:27.556Z,97.40
2022-09-20T19:05:13.924Z,97.40
2022-09-20T19:08:06.095Z,97.40
2022-09-20T19:10:43.031Z,97.40
2022-09-20T19:13:26.919Z,97.40
2022-09-20T19:16:11.791Z,97.40
2022-09-20T19:19:08.745Z,97.40
2022-09-20T19:21:49.172Z,97.40
2022-09-20T19:24:29.537Z,97.40
2022-09-20T19:26:58.092Z,97.40
2022-09-20T19:29:29.077Z,97.40
2022-09-20T19:32:00.806Z,97.40
2022-09-20T19:34:33.008Z,97.40
2022-09-20T19:37:18.377Z,97.40
2022-09-20T19:40:11.982Z,97.40
2022-09-20T19:42:54.705Z,97.40
2022-09-20T19:45:32.356Z,97.40
2022-09-20T19:48:09.178Z,97.40
2022-09-20T19:50:45.271Z,97.40
2022-09-20T19:53:14.629Z,97.40
2022-09-20T19:55:48.631Z,97.40
2022-09-20T19:58:17.865Z,97.40
2022-09-20T20:00:47.720Z,97.40
2022-09-20T20:03:17.443Z,97.40
2022-09-20T20:05:56.054Z,97.40
2022-09-20T20:08:34.371Z,97.40
2022-09-20T20:11:09.790Z,97.40
2022-09-20T20:14:06.955Z,97.40
2022-09-20T20:16:55.223Z,97.40
2022-09-20T20:20:03.915Z,97.40
2022-09-20T20:22:55.580Z,97.40
2022-09-20T20:25:35.477Z,97.40
2022-09-20T20:28:03.788Z,97.40
2022-09-20T20:30:31.907Z,97.40
2022-09-20T20:33:00.544Z,97.40
2022-09-20T20:35:28.727Z,97.40
2022-09-20T20:37:58.195Z,97.40
2022-09-20T20:40:27.125Z,97.40
2022-09-20T20:43:01.958Z,97.40
2022-09-20T20:45:30.205Z,97.40
2022-09-20T20:47:59.016Z,97.40
2022-09-20T20:50:28.017Z,97.40
2022-09-20T20:52:58.199Z,97.40
2022-09-20T20:55:26.388Z,97.40
2022-09-20T20:57:58.034Z,97.40
2022-09-20T21:00:26.649Z,97.40
2022-09-20T21:02:59.841Z,97.40
2022-09-20T21:05:28.609Z,97.40
2022-09-20T21:07:58.807Z,97.40
2022-09-20T21:10:27.027Z,97.40
2022-09-20T21:12:55.913Z,97.40
2022-09-20T21:15:24.001Z,97.40
2022-09-20T21:17:53.001Z,97.40
2022-09-20T21:20:22.408Z,97.40
2022-09-20T21:22:50.561Z,97.40
2022-09-20T21:25:20.066Z,97.40
2022-09-20T21:27:49.483Z,97.40
2022-09-20T21:30:17.835Z,97.40
2022-09-20T21:32:45.922Z,97.40
2022-09-20T21:35:14.161Z,97.40
2022-09-20T21:37:42.244Z,97.40
2022-09-20T21:40:11.738Z,97.40
2022-09-20T21:42:41.217Z,97.40
2022-09-20T21:45:10.819Z,97.40
2022-09-20T21:47:38.978Z,97.40
2022-09-20T21:50:08.764Z,97.40
2022-09-20T21:52:36.873Z,97.40
2022-09-20T21:55:06.887Z,97.40
2022-09-20T21:57:35.032Z,97.40
2022-09-20T22:00:05.726Z,97.40
2022-09-20T22:02:40.510Z,97.40
2022-09-20T22:05:09.301Z,97.40
2022-09-20T22:07:37.477Z,97.40
2022-09-20T22:10:06.625Z,97.40
2022-09-20T22:12:34.696Z,97.40
2022-09-20T22:15:04.253Z,97.40
2022-09-20T22:17:32.323Z,97.40
2022-09-20T22:20:00.374Z,97.40
2022-09-20T22:22:28.542Z,97.40
2022-09-20T22:24:56.718Z,97.40
2022-09-20T22:27:24.859Z,97.40
2022-09-20T22:29:53.315Z,97.40
2022-09-20T22:32:22.784Z,97.40
2022-09-20T22:34:50.870Z,97.40
2022-09-20T22:37:19.060Z,97.40
2022-09-20T22:39:47.387Z,97.40
2022-09-20T22:42:15.487Z,97.40
2022-09-20T22:44:43.550Z,97.40
2022-09-20T22:47:12.142Z,97.40
2022-09-20T22:49:41.590Z,97.40
2022-09-20T22:52:09.684Z,97.40
2022-09-20T22:54:37.797Z,97.40
2022-09-20T22:57:06.253Z,97.40
2022-09-20T22:59:34.386Z,97.40
2022-09-20T23:02:02.478Z,97.40
2022-09-20T23:04:30.656Z,97.40
2022-09-20T23:07:00.129Z,97.40
2022-09-20T23:09:28.637Z,97.40
2022-09-20T23:11:56.831Z,97.40
2022-09-20T23:14:24.997Z,97.40
2022-09-20T23:16:53.227Z,97.40
2022-09-20T23:19:21.384Z,97.40
2022-09-20T23:21:49.456Z,97.40
2022-09-20T23:24:18.913Z,97.40
2022-09-20T23:26:47.549Z,97.40
2022-09-20T23:29:17.999Z,97.40
2022-09-20T23:31:47.899Z,97.40
2022-09-20T23:34:18.019Z,97.40
2022-09-20T23:36:47.184Z,97.40
2022-09-20T23:39:17.651Z,97.40
2022-09-20T23:41:50.566Z,97.40
2022-09-20T23:44:19.283Z,97.40
2022-09-20T23:46:47.376Z,97.40
2022-09-20T23:49:15.680Z,97.40
2022-09-20T23:51:43.851Z,97.40
2022-09-20T23:54:11.992Z,97.40
2022-09-20T23:56:42.669Z,97.40
2022-09-20T23:59:10.931Z,97.40
